Time;durP1;ratioP1;P1;durP2;ratioP2;P2;SDS_P1;SDS_P2;PMS_P1;PMS_P2;Temp;Humidity;BMP_temperature;BMP_pressure;BME280_temperature;BME280_humidity;BME280_pressure;Samples;Min_cycle;Max_cycle;Signal;HPM_P1;HPM_P2
2023/03/31 00:00:11;;;;;;;5.88;3.03;;;11.50;99.90;;;;;;5014041;28;20506;-47
2023/03/31 00:02:57;;;;;;;5.07;2.85;;;11.50;99.90;;;;;;5020323;28;20045;-54
2023/03/31 00:05:46;;;;;;;11.27;3.30;;;11.60;99.90;;;;;;5011383;28;20049;-50
2023/03/31 00:08:36;;;;;;;6.50;3.38;;;11.60;99.90;;;;;;4998476;28;20026;-52
2023/03/31 00:11:22;;;;;;;7.47;3.10;;;11.60;99.90;;;;;;4997843;28;20026;-48
2023/03/31 00:14:08;;;;;;;5.15;3.08;;;11.50;99.90;;;;;;5013431;28;20506;-47
2023/03/31 00:16:55;;;;;;;6.00;2.85;;;11.50;99.90;;;;;;5006406;28;20499;-51
2023/03/31 00:19:41;;;;;;;4.90;2.58;;;11.50;99.90;;;;;;5012307;28;20040;-49
2023/03/31 00:22:27;;;;;;;5.25;2.80;;;11.50;99.90;;;;;;5012305;28;20022;-51
2023/03/31 00:25:15;;;;;;;6.55;3.17;;;11.50;99.90;;;;;;4998431;28;20038;-53
2023/03/31 00:28:01;;;;;;;6.85;3.53;;;11.40;99.90;;;;;;5013923;28;20022;-51
2023/03/31 00:30:47;;;;;;;5.78;2.80;;;11.30;99.90;;;;;;5013166;28;20022;-45
2023/03/31 00:33:33;;;;;;;5.38;2.70;;;11.30;99.90;;;;;;4997979;28;20077;-54
2023/03/31 00:36:28;;;;;;;7.47;3.55;;;11.30;99.90;;;;;;5013289;28;20032;-49
2023/03/31 00:39:16;;;;;;;;;;;11.40;99.90;;;;;;5014439;28;20037;-46
2023/03/31 00:42:03;;;;;;;7.22;3.47;;;11.30;99.90;;;;;;5013680;28;19910;-46
2023/03/31 00:45:14;;;;;;;4.88;2.90;;;11.30;99.90;;;;;;5011507;28;20106;-48
2023/03/31 00:48:09;;;;;;;6.22;3.28;;;11.30;99.90;;;;;;4991747;28;20121;-50
2023/03/31 00:50:56;;;;;;;4.00;2.70;;;11.20;99.90;;;;;;5013211;28;20120;-47
2023/03/31 00:53:45;;;;;;;4.15;2.63;;;11.30;99.90;;;;;;5019924;28;20038;-51
2023/03/31 00:56:36;;;;;;;8.35;3.40;;;11.30;99.90;;;;;;5011178;28;20048;-48
2023/03/31 00:59:26;;;;;;;9.55;3.63;;;11.20;99.90;;;;;;5026178;28;20033;-56
2023/03/31 01:02:14;;;;;;;6.07;2.70;;;11.20;99.90;;;;;;5026685;28;20410;-54
2023/03/31 01:05:01;;;;;;;6.03;3.08;;;11.20;99.90;;;;;;5038035;28;20293;-48
2023/03/31 01:07:48;;;;;;;6.72;3.97;;;11.30;99.90;;;;;;5030344;28;20030;-50
2023/03/31 01:10:40;;;;;;;6.90;4.20;;;11.20;99.90;;;;;;5012875;28;20030;-50
2023/03/31 01:13:28;;;;;;;5.60;2.90;;;11.20;99.90;;;;;;5013601;28;20030;-55
2023/03/31 01:16:14;;;;;;;7.47;3.05;;;11.20;99.90;;;;;;5026243;28;20124;-48
2023/03/31 01:19:01;;;;;;;9.20;2.95;;;11.20;99.90;;;;;;5006132;28;20037;-51
2023/03/31 01:22:30;;;;;;;6.18;3.10;;;11.30;99.90;;;;;;5010831;28;20037;-49
2023/03/31 01:25:37;;;;;;;6.35;3.22;;;11.20;99.90;;;;;;5011028;28;20405;-49
2023/03/31 01:28:51;;;;;;;5.25;2.85;;;11.20;99.90;;;;;;5010346;28;20018;-55
2023/03/31 01:32:05;;;;;;;6.30;2.88;;;11.20;99.90;;;;;;5013172;28;20113;-46
2023/03/31 01:35:21;;;;;;;4.22;2.85;;;11.10;99.90;;;;;;5010921;28;20084;-48
2023/03/31 01:38:40;;;;;;;7.15;3.60;;;11.10;99.90;;;;;;5010685;28;20119;-46
2023/03/31 01:42:13;;;;;;;6.30;3.83;;;11.20;99.90;;;;;;5010807;28;20036;-47
2023/03/31 01:45:18;;;;;;;6.25;3.10;;;11.20;99.90;;;;;;4948396;28;20075;-51
2023/03/31 01:48:33;;;;;;;6.05;3.40;;;11.20;99.90;;;;;;4935461;29;20034;-51
2023/03/31 01:51:32;;;;;;;7.95;3.35;;;11.20;99.90;;;;;;5004877;28;20111;-49
2023/03/31 01:54:45;;;;;;;5.50;3.08;;;11.30;99.90;;;;;;5004305;28;20450;-48
2023/03/31 01:57:38;;;;;;;6.28;3.35;;;11.20;99.90;;;;;;4969579;28;20488;-52
2023/03/31 02:00:33;;;;;;;6.78;2.90;;;11.20;99.90;;;;;;5001046;28;20030;-50
2023/03/31 02:03:28;;;;;;;5.65;2.83;;;11.20;99.90;;;;;;5023380;28;20033;-49
2023/03/31 02:06:27;;;;;;;8.30;3.13;;;11.20;99.90;;;;;;5019839;28;20048;-51
2023/03/31 02:09:18;;;;;;;9.80;3.40;;;11.20;99.90;;;;;;5010340;28;20018;-49
2023/03/31 02:12:08;;;;;;;7.15;3.40;;;11.30;99.90;;;;;;5010443;28;20394;-52
2023/03/31 02:14:58;;;;;;;11.43;3.80;;;11.20;99.90;;;;;;5010681;28;20058;-50
2023/03/31 02:17:49;;;;;;;9.55;3.47;;;11.40;99.90;;;;;;4998037;28;20026;-51
2023/03/31 02:20:40;;;;;;;8.55;3.67;;;11.30;99.90;;;;;;5010207;28;20037;-49
2023/03/31 02:23:30;;;;;;;10.40;3.22;;;11.20;99.90;;;;;;5026470;28;20018;-49
2023/03/31 02:26:24;;;;;;;7.90;3.00;;;11.20;99.90;;;;;;5020755;28;20026;-49
2023/03/31 02:29:10;;;;;;;6.60;3.35;;;11.20;99.90;;;;;;4992037;28;20538;-53
2023/03/31 02:32:31;;;;;;;7.63;3.08;;;11.20;99.90;;;;;;5000116;28;20029;-47
2023/03/31 02:35:20;;;;;;;8.13;3.10;;;11.20;99.90;;;;;;5025602;28;20017;-53
2023/03/31 02:38:07;;;;;;;10.63;3.58;;;11.10;99.90;;;;;;4988095;28;20018;-47
2023/03/31 02:40:53;;;;;;;5.05;3.17;;;11.20;99.90;;;;;;4991136;28;20038;-51
2023/03/31 02:43:39;;;;;;;7.18;3.38;;;11.10;99.90;;;;;;5007347;28;20025;-52
2023/03/31 02:46:26;;;;;;;7.68;3.97;;;11.10;99.90;;;;;;4994427;28;20057;-49
2023/03/31 02:49:13;;;;;;;8.23;3.75;;;11.10;99.90;;;;;;5007499;28;20112;-50
2023/03/31 02:52:08;;;;;;;6.40;3.00;;;11.20;99.90;;;;;;5009930;28;20125;-50
2023/03/31 02:55:13;;;;;;;8.05;3.90;;;11.10;99.90;;;;;;5009735;28;20483;-52
2023/03/31 02:58:26;;;;;;;9.27;3.50;;;11.10;99.90;;;;;;4988620;28;20058;-47
2023/03/31 03:01:18;;;;;;;9.82;3.78;;;11.10;99.90;;;;;;5009299;28;20038;-47
2023/03/31 03:05:10;;;;;;;6.00;3.17;;;11.10;99.90;;;;;;5007903;28;20022;-50
2023/03/31 03:08:14;;;;;;;6.55;3.90;;;11.10;99.90;;;;;;4949666;28;20031;-47
2023/03/31 03:11:22;;;;;;;8.95;4.82;;;11.10;99.90;;;;;;4942008;28;20051;-47
2023/03/31 03:14:18;;;;;;;6.63;3.97;;;11.00;99.90;;;;;;4990055;28;20026;-49
2023/03/31 03:17:29;;;;;;;7.40;3.95;;;11.10;99.90;;;;;;4989786;28;20026;-46
2023/03/31 03:20:17;;;;;;;8.35;3.20;;;11.00;99.90;;;;;;5009283;28;20026;-47
2023/03/31 03:23:03;;;;;;;7.28;2.85;;;11.10;99.90;;;;;;4998808;28;20561;-48
2023/03/31 03:25:50;;;;;;;7.00;3.10;;;11.00;99.90;;;;;;4990598;28;20073;-49
2023/03/31 03:28:35;;;;;;;5.45;3.22;;;11.00;99.90;;;;;;4997609;28;20034;-47
2023/03/31 03:31:22;;;;;;;5.82;3.00;;;11.00;99.90;;;;;;5014730;28;20072;-49
2023/03/31 03:34:08;;;;;;;8.02;3.58;;;11.10;99.90;;;;;;4979997;28;20128;-49
2023/03/31 03:36:54;;;;;;;10.50;4.35;;;11.20;99.90;;;;;;4996382;28;20491;-50
2023/03/31 03:39:40;;;;;;;7.55;3.45;;;11.10;99.90;;;;;;5013837;28;20033;-50
2023/03/31 03:42:26;;;;;;;9.15;3.55;;;11.20;99.90;;;;;;5013793;28;20049;-53
2023/03/31 03:45:12;;;;;;;9.00;4.07;;;11.10;99.90;;;;;;5026598;28;20038;-55
2023/03/31 03:47:58;;;;;;;11.23;4.13;;;11.10;99.90;;;;;;5014383;28;20034;-48
2023/03/31 03:50:45;;;;;;;9.70;3.40;;;11.10;99.90;;;;;;5011377;28;20045;-50
2023/03/31 03:53:31;;;;;;;8.13;3.25;;;11.10;99.90;;;;;;5013524;28;20034;-45
2023/03/31 03:56:17;;;;;;;12.60;3.63;;;11.00;99.90;;;;;;5013368;28;20038;-47
2023/03/31 03:59:03;;;;;;;8.07;3.80;;;11.00;99.90;;;;;;5013893;28;20034;-47
2023/03/31 04:01:49;;;;;;;16.92;3.95;;;11.00;99.90;;;;;;5011883;28;20433;-49
2023/03/31 04:04:35;;;;;;;9.40;3.72;;;11.00;99.90;;;;;;5013219;28;20030;-49
2023/03/31 04:07:21;;;;;;;7.72;3.47;;;11.00;99.90;;;;;;5012920;28;20076;-51
2023/03/31 04:10:08;;;;;;;7.38;3.60;;;11.00;99.90;;;;;;4996979;28;20058;-52
2023/03/31 04:12:54;;;;;;;5.32;3.05;;;11.10;99.90;;;;;;5012224;28;20382;-47
2023/03/31 04:15:40;;;;;;;7.00;3.20;;;11.00;99.90;;;;;;5013212;28;20026;-45
2023/03/31 04:18:26;;;;;;;7.20;3.05;;;11.10;99.90;;;;;;5011240;28;20029;-46
2023/03/31 04:21:21;;;;;;;6.30;3.30;;;11.00;99.90;;;;;;5012408;28;20521;-49
2023/03/31 04:24:07;;;;;;;8.55;4.38;;;11.00;99.90;;;;;;5012226;28;20410;-54
2023/03/31 04:26:55;;;;;;;7.90;3.83;;;11.00;99.90;;;;;;5012741;28;20034;-53
2023/03/31 04:29:41;;;;;;;9.88;3.92;;;11.00;99.90;;;;;;5011404;28;20041;-45
2023/03/31 04:32:31;;;;;;;10.10;4.22;;;11.00;99.90;;;;;;5011897;28;20033;-48
2023/03/31 04:35:19;;;;;;;7.40;3.80;;;11.00;99.90;;;;;;5011767;28;20057;-46
2023/03/31 04:38:05;;;;;;;8.77;3.45;;;11.00;99.90;;;;;;5012375;28;20057;-46
2023/03/31 04:40:52;;;;;;;10.20;3.42;;;11.00;99.90;;;;;;5011692;28;20026;-48
2023/03/31 04:43:38;;;;;;;6.63;3.53;;;11.00;99.90;;;;;;5013554;28;20057;-54
2023/03/31 04:46:25;;;;;;;4.88;3.47;;;11.00;99.90;;;;;;4981319;28;20034;-54
2023/03/31 04:49:11;;;;;;;11.85;3.95;;;11.00;99.90;;;;;;5014016;28;20482;-47
2023/03/31 04:51:57;;;;;;;5.80;3.17;;;11.00;99.90;;;;;;5011537;28;20033;-48
2023/03/31 04:54:43;;;;;;;10.15;3.38;;;11.10;99.90;;;;;;4998892;28;20029;-54
2023/03/31 04:57:29;;;;;;;7.82;3.40;;;11.10;99.90;;;;;;5013234;28;20044;-49
2023/03/31 05:00:15;;;;;;;9.00;3.42;;;11.00;99.90;;;;;;5010915;28;20038;-48
2023/03/31 05:03:02;;;;;;;8.95;3.85;;;11.10;99.90;;;;;;5012625;28;20069;-49
2023/03/31 05:05:48;;;;;;;8.30;3.80;;;10.90;99.90;;;;;;5012313;28;20430;-49
2023/03/31 05:08:34;;;;;;;7.25;3.83;;;11.00;99.90;;;;;;4996862;28;20026;-49
2023/03/31 05:11:20;;;;;;;8.55;3.42;;;10.90;99.90;;;;;;5011446;28;20106;-47
2023/03/31 05:14:06;;;;;;;7.90;3.28;;;10.90;99.90;;;;;;5032481;28;20044;-46
2023/03/31 05:16:56;;;;;;;11.48;3.42;;;10.80;99.90;;;;;;4980151;28;20030;-46
2023/03/31 05:19:43;;;;;;;6.10;3.50;;;10.80;99.90;;;;;;5008773;28;20057;-47
2023/03/31 05:22:29;;;;;;;7.18;3.08;;;10.80;99.90;;;;;;5012155;28;20041;-50
2023/03/31 05:25:17;;;;;;;3.78;2.95;;;10.80;99.90;;;;;;5011288;28;20045;-46
2023/03/31 05:28:03;;;;;;;7.80;3.05;;;10.80;99.90;;;;;;5011733;28;20686;-53
2023/03/31 05:30:49;;;;;;;5.93;3.20;;;10.90;99.90;;;;;;5010416;28;20026;-51
2023/03/31 05:33:40;;;;;;;9.25;3.25;;;10.90;99.90;;;;;;5010099;28;20084;-51
2023/03/31 05:36:26;;;;;;;9.38;3.63;;;10.90;99.90;;;;;;5011142;28;20034;-47
2023/03/31 05:39:12;;;;;;;11.32;3.45;;;11.00;99.90;;;;;;4996639;28;20044;-51
2023/03/31 05:41:59;;;;;;;7.00;3.17;;;11.00;99.90;;;;;;5012966;28;20518;-54
2023/03/31 05:44:45;;;;;;;6.50;3.03;;;11.00;99.90;;;;;;5010498;28;20032;-47
2023/03/31 05:47:31;;;;;;;4.65;3.22;;;11.20;99.90;;;;;;5011637;28;20033;-47
2023/03/31 05:50:17;;;;;;;7.38;3.47;;;11.20;99.90;;;;;;4992113;28;20081;-46
2023/03/31 05:53:03;;;;;;;7.88;3.20;;;11.20;99.90;;;;;;4991290;28;20041;-51
2023/03/31 05:55:55;;;;;;;6.97;3.45;;;11.30;99.90;;;;;;4990373;28;20022;-48
2023/03/31 05:58:41;;;;;;;6.68;3.33;;;11.30;99.90;;;;;;5010212;28;20556;-50
2023/03/31 06:01:28;;;;;;;10.13;3.83;;;11.40;99.90;;;;;;5010705;28;20457;-52
2023/03/31 06:04:14;;;;;;;8.65;3.35;;;11.40;99.90;;;;;;5009140;28;20038;-53
2023/03/31 06:07:00;;;;;;;8.77;3.03;;;11.40;99.90;;;;;;4983637;28;20132;-55
2023/03/31 06:09:46;;;;;;;7.80;3.10;;;11.40;99.90;;;;;;5009771;28;20057;-53
2023/03/31 06:12:32;;;;;;;9.57;3.80;;;11.30;99.90;;;;;;5010519;28;20116;-48
2023/03/31 06:15:18;;;;;;;9.27;3.50;;;11.40;99.90;;;;;;5009563;28;20284;-53
2023/03/31 06:18:06;;;;;;;7.82;3.28;;;11.30;99.90;;;;;;5009173;28;20072;-52
2023/03/31 06:20:52;;;;;;;9.50;4.45;;;11.40;99.90;;;;;;5011483;28;20478;-51
2023/03/31 06:23:38;;;;;;;9.50;4.10;;;11.30;99.90;;;;;;5009990;28;20438;-53
2023/03/31 06:26:24;;;;;;;18.25;4.38;;;11.30;99.90;;;;;;5012141;28;20033;-55
2023/03/31 06:29:10;;;;;;;9.45;3.97;;;11.30;99.90;;;;;;5012711;28;20572;-55
2023/03/31 06:31:56;;;;;;;9.65;3.22;;;11.20;99.90;;;;;;5006329;28;20486;-52
2023/03/31 06:34:42;;;;;;;8.13;3.08;;;11.20;99.90;;;;;;5009887;28;20022;-54
2023/03/31 06:37:28;;;;;;;7.55;3.05;;;11.20;99.90;;;;;;5014527;28;20110;-52
2023/03/31 06:40:14;;;;;;;6.30;3.08;;;11.20;99.90;;;;;;5009224;28;20026;-54
2023/03/31 06:43:00;;;;;;;7.57;2.95;;;11.20;99.90;;;;;;5015931;28;20030;-54
2023/03/31 06:45:46;;;;;;;5.55;2.75;;;11.20;99.90;;;;;;5010133;28;20029;-53
2023/03/31 06:48:33;;;;;;;7.32;3.08;;;11.20;99.90;;;;;;5010517;28;20453;-54
2023/03/31 06:51:19;;;;;;;5.53;2.78;;;11.30;99.90;;;;;;5009368;28;20062;-52
2023/03/31 06:54:05;;;;;;;8.45;3.70;;;11.30;99.90;;;;;;4991492;28;20023;-51
2023/03/31 06:56:51;;;;;;;6.40;2.50;;;11.40;99.90;;;;;;5007658;28;20033;-52
2023/03/31 06:59:37;;;;;;;8.85;3.45;;;11.40;99.90;;;;;;5009919;28;20025;-54
2023/03/31 07:02:23;;;;;;;7.82;3.10;;;11.40;99.90;;;;;;4999113;28;20022;-51
2023/03/31 07:05:09;;;;;;;7.88;3.30;;;11.50;99.90;;;;;;5007613;28;20072;-55
2023/03/31 07:07:57;;;;;;;6.82;3.10;;;11.50;99.90;;;;;;5008971;28;20097;-52
2023/03/31 07:10:47;;;;;;;6.28;2.92;;;11.60;99.90;;;;;;5006071;28;20046;-55
2023/03/31 07:13:33;;;;;;;5.38;2.70;;;11.70;99.90;;;;;;4976812;28;20058;-53
2023/03/31 07:16:19;;;;;;;9.18;3.60;;;11.80;99.90;;;;;;5007242;28;20026;-52
2023/03/31 07:19:06;;;;;;;11.32;4.53;;;11.80;99.90;;;;;;5009027;28;20026;-55
2023/03/31 07:21:53;;;;;;;6.63;3.25;;;11.90;99.90;;;;;;5005478;28;20604;-51
2023/03/31 07:24:39;;;;;;;8.63;3.55;;;12.00;99.90;;;;;;5023152;28;20036;-53
2023/03/31 07:27:25;;;;;;;6.75;2.80;;;12.10;99.90;;;;;;5003497;28;20057;-53
2023/03/31 07:30:16;;;;;;;6.75;3.13;;;12.10;99.90;;;;;;5021809;28;20040;-54
2023/03/31 07:33:02;;;;;;;7.53;3.42;;;12.00;99.90;;;;;;5029190;28;20044;-51
2023/03/31 07:35:48;;;;;;;6.55;3.30;;;12.10;99.90;;;;;;5009046;28;20475;-51
2023/03/31 07:38:34;;;;;;;6.47;3.25;;;12.10;99.90;;;;;;5010102;28;20034;-50
2023/03/31 07:41:21;;;;;;;9.60;3.60;;;12.20;99.90;;;;;;5009408;28;20176;-52
2023/03/31 07:44:07;;;;;;;13.25;3.92;;;12.20;99.90;;;;;;5009335;28;20062;-63
2023/03/31 07:46:53;;;;;;;5.82;3.50;;;12.20;99.90;;;;;;5008254;28;20037;-56
2023/03/31 07:49:39;;;;;;;9.57;4.00;;;12.20;99.90;;;;;;5008575;28;20503;-54
2023/03/31 07:52:25;;;;;;;12.18;7.32;;;12.20;99.90;;;;;;5004297;28;20026;-52
2023/03/31 07:55:11;;;;;;;9.55;5.10;;;12.30;99.90;;;;;;5001278;28;20127;-50
2023/03/31 07:57:57;;;;;;;14.85;6.70;;;12.30;99.90;;;;;;5004311;28;20403;-50
2023/03/31 08:00:43;;;;;;;12.95;7.30;;;12.40;99.90;;;;;;4994811;28;20036;-57
2023/03/31 08:03:30;;;;;;;9.77;5.75;;;12.30;99.90;;;;;;4995266;28;20117;-50
2023/03/31 08:06:18;;;;;;;10.18;5.85;;;12.40;99.90;;;;;;5008057;28;20525;-49
2023/03/31 08:09:08;;;;;;;13.20;5.72;;;12.40;99.90;;;;;;5008545;28;20053;-50
2023/03/31 08:11:54;;;;;;;13.10;5.20;;;12.50;99.90;;;;;;5002344;28;20034;-51
2023/03/31 08:14:41;;;;;;;8.23;4.22;;;12.40;99.90;;;;;;5006502;28;20042;-51
2023/03/31 08:17:27;;;;;;;5.82;3.70;;;12.40;99.90;;;;;;4992495;28;20034;-51
2023/03/31 08:20:13;;;;;;;8.27;3.92;;;12.40;99.90;;;;;;5010520;28;20406;-51
2023/03/31 08:22:59;;;;;;;10.25;4.68;;;12.50;99.90;;;;;;5011671;28;20064;-48
2023/03/31 08:25:45;;;;;;;10.70;3.90;;;12.50;99.90;;;;;;5010849;28;20026;-48
2023/03/31 08:28:30;;;;;;;9.48;3.70;;;12.50;99.90;;;;;;5010310;28;20030;-50
2023/03/31 08:31:18;;;;;;;6.70;3.60;;;12.50;99.90;;;;;;5011666;28;20026;-53
2023/03/31 08:34:05;;;;;;;5.60;3.65;;;12.50;99.90;;;;;;5010692;28;20061;-51
2023/03/31 08:36:51;;;;;;;9.63;4.32;;;12.60;99.90;;;;;;5003238;28;20053;-55
2023/03/31 08:39:37;;;;;;;8.90;3.72;;;12.60;99.90;;;;;;5014471;28;20074;-48
2023/03/31 08:42:35;;;;;;;5.80;3.50;;;12.60;99.90;;;;;;5013221;28;20423;-50
2023/03/31 08:45:34;;;;;;;8.70;4.05;;;12.60;99.90;;;;;;5012741;28;20131;-50
2023/03/31 08:48:28;;;;;;;13.10;3.88;;;12.40;99.90;;;;;;5013676;28;20125;-56
2023/03/31 08:51:21;;;;;;;17.02;4.32;;;12.50;99.90;;;;;;5008975;28;20113;-46
2023/03/31 08:54:30;;;;;;;9.52;4.00;;;12.50;99.90;;;;;;5011062;28;20101;-47
2023/03/31 08:57:24;;;;;;;7.65;3.55;;;12.40;99.90;;;;;;5009821;28;20033;-54
2023/03/31 09:00:16;;;;;;;10.57;4.30;;;12.40;99.90;;;;;;5018187;28;20117;-49
2023/03/31 09:03:09;;;;;;;7.75;4.00;;;12.50;99.90;;;;;;5009176;28;20033;-47
2023/03/31 09:06:03;;;;;;;9.88;3.50;;;12.40;99.90;;;;;;5018804;28;20189;-51
2023/03/31 09:08:53;;;;;;;7.22;3.92;;;12.50;99.90;;;;;;5014830;28;20491;-57
2023/03/31 09:12:01;;;;;;;7.80;3.47;;;12.40;99.90;;;;;;5011446;28;20525;-50
2023/03/31 09:14:54;;;;;;;7.40;3.78;;;12.50;99.90;;;;;;5009767;28;20034;-52
2023/03/31 09:17:44;;;;;;;6.03;3.55;;;12.60;99.90;;;;;;5009432;28;20454;-57
2023/03/31 09:20:36;;;;;;;12.75;4.32;;;12.60;99.90;;;;;;5013271;28;20057;-58
2023/03/31 09:23:30;;;;;;;9.82;4.95;;;12.60;99.90;;;;;;5014063;28;20030;-57
2023/03/31 09:26:35;;;;;;;6.43;3.75;;;12.50;99.90;;;;;;5008285;28;20030;-56
2023/03/31 09:29:42;;;;;;;7.10;3.50;;;12.50;99.90;;;;;;5008899;28;20129;-55
2023/03/31 09:32:30;;;;;;;6.75;3.45;;;12.50;99.90;;;;;;5008950;28;20049;-58
2023/03/31 09:35:18;;;;;;;9.27;3.58;;;12.40;99.90;;;;;;5014501;28;20062;-58
2023/03/31 09:38:04;;;;;;;8.15;3.85;;;12.40;99.90;;;;;;5013262;28;20105;-54
2023/03/31 09:40:50;;;;;;;7.72;3.40;;;12.30;99.90;;;;;;4983110;28;20026;-53
2023/03/31 09:43:39;;;;;;;6.93;3.42;;;12.40;99.90;;;;;;4992430;28;20033;-55
2023/03/31 09:46:31;;;;;;;7.45;3.55;;;12.40;99.90;;;;;;5016254;28;20494;-60
2023/03/31 09:49:22;;;;;;;8.13;4.05;;;12.30;99.90;;;;;;4992395;28;20030;-52
2023/03/31 09:52:21;;;;;;;10.52;3.42;;;12.20;99.90;;;;;;4996273;28;20120;-57
2023/03/31 09:55:35;;;;;;;9.88;3.80;;;12.20;99.90;;;;;;5011911;28;20112;-57
2023/03/31 09:58:23;;;;;;;5.75;3.20;;;12.20;99.90;;;;;;5013279;28;20119;-55
2023/03/31 10:01:12;;;;;;;12.13;6.40;;;12.20;99.90;;;;;;5014672;28;20037;-56
2023/03/31 10:03:58;;;;;;;8.00;3.70;;;12.20;99.90;;;;;;5011644;28;20096;-55
2023/03/31 10:06:46;;;;;;;8.57;4.13;;;12.20;99.90;;;;;;5001125;28;20100;-59
2023/03/31 10:09:33;;;;;;;7.80;3.47;;;12.20;99.90;;;;;;4995217;28;20050;-59
2023/03/31 10:12:23;;;;;;;5.32;3.30;;;12.20;99.90;;;;;;4995522;28;20411;-58
2023/03/31 10:15:21;;;;;;;14.07;4.05;;;12.20;99.90;;;;;;4997901;28;20048;-54
2023/03/31 10:18:15;;;;;;;6.18;3.55;;;12.20;99.90;;;;;;4996206;28;20023;-60
2023/03/31 10:21:04;;;;;;;6.30;3.40;;;12.20;99.90;;;;;;5011485;28;20045;-55
2023/03/31 10:23:50;;;;;;;11.10;5.68;;;12.10;99.90;;;;;;5010572;28;20443;-57
2023/03/31 10:26:38;;;;;;;6.40;3.20;;;12.10;99.90;;;;;;5020892;28;20045;-59
2023/03/31 10:29:33;;;;;;;9.35;3.90;;;12.10;99.90;;;;;;5029839;28;20033;-57
2023/03/31 10:32:24;;;;;;;8.13;5.33;;;12.00;99.90;;;;;;5012546;28;20045;-59
2023/03/31 10:35:25;;;;;;;8.70;3.75;;;11.90;99.90;;;;;;5011542;28;20018;-58
2023/03/31 10:38:16;;;;;;;13.52;6.13;;;12.00;99.90;;;;;;5022548;28;20021;-60
2023/03/31 10:41:02;;;;;;;13.55;5.60;;;12.00;99.90;;;;;;5001286;28;20041;-60
2023/03/31 10:43:48;;;;;;;7.60;4.30;;;12.00;99.90;;;;;;5010149;28;20044;-62
2023/03/31 10:46:46;;;;;;;10.60;6.00;;;12.10;99.90;;;;;;5002904;28;20080;-60
2023/03/31 10:49:38;;;;;;;8.45;4.82;;;12.00;99.90;;;;;;5009384;28;20112;-63
2023/03/31 10:52:28;;;;;;;6.03;4.05;;;12.10;99.90;;;;;;5011647;28;20026;-62
2023/03/31 10:55:28;;;;;;;7.85;4.38;;;12.00;99.90;;;;;;5011316;28;20022;-56
2023/03/31 10:59:00;;;;;;;7.47;3.92;;;11.90;99.90;;;;;;5010737;28;20553;-58
2023/03/31 11:02:04;;;;;;;9.68;3.97;;;11.90;99.90;;;;;;4960080;28;20046;-56
2023/03/31 11:05:08;;;;;;;9.70;4.10;;;11.90;99.90;;;;;;5005567;28;20650;-57
2023/03/31 11:08:00;;;;;;;7.60;4.38;;;11.80;99.90;;;;;;5009859;28;20037;-58
2023/03/31 11:11:05;;;;;;;7.57;5.15;;;11.80;99.90;;;;;;5010158;28;20479;-55
2023/03/31 11:14:13;;;;;;;9.30;4.60;;;11.90;99.90;;;;;;5009741;28;20491;-52
2023/03/31 11:17:49;;;;;;;11.70;4.60;;;11.80;99.90;;;;;;5011588;28;20038;-53
2023/03/31 11:21:02;;;;;;;7.25;4.53;;;11.80;99.90;;;;;;4950742;28;20115;-59
2023/03/31 11:23:56;;;;;;;12.07;4.30;;;11.70;99.90;;;;;;4963446;28;20251;-56
2023/03/31 11:26:53;;;;;;;9.43;4.95;;;11.60;99.90;;;;;;4996044;28;20033;-54
2023/03/31 11:30:19;;;;;;;7.15;4.65;;;11.70;99.90;;;;;;5009794;28;20561;-57
2023/03/31 11:33:20;;;;;;;10.48;4.85;;;11.70;99.90;;;;;;4947908;28;20030;-60
2023/03/31 11:36:44;;;;;;;5.85;4.10;;;11.70;99.90;;;;;;5005796;28;20035;-60
2023/03/31 11:39:49;;;;;;;6.95;4.35;;;11.60;99.90;;;;;;4995557;28;20034;-57
2023/03/31 11:42:51;;;;;;;5.60;3.40;;;11.60;99.90;;;;;;4998569;28;20101;-59
2023/03/31 11:45:52;;;;;;;5.22;3.30;;;11.60;99.90;;;;;;5010373;28;20026;-60
2023/03/31 11:48:45;;;;;;;4.90;3.58;;;11.50;99.90;;;;;;5009312;28;20049;-57
2023/03/31 11:51:41;;;;;;;7.97;3.80;;;11.50;99.90;;;;;;5013119;28;20058;-60
2023/03/31 11:55:01;;;;;;;5.60;3.92;;;11.60;99.90;;;;;;4994869;28;20110;-56
2023/03/31 11:57:55;;;;;;;8.13;4.10;;;11.60;99.90;;;;;;5004349;28;20128;-57
2023/03/31 12:00:49;;;;;;;7.38;4.32;;;11.70;99.90;;;;;;5012332;28;20116;-57
2023/03/31 12:03:46;;;;;;;7.25;4.65;;;11.80;99.90;;;;;;5014319;28;20030;-55
2023/03/31 12:06:38;;;;;;;10.40;4.85;;;11.90;99.90;;;;;;5014598;28;20418;-56
2023/03/31 12:09:35;;;;;;;7.25;4.60;;;11.80;99.90;;;;;;5011445;28;20033;-56
2023/03/31 12:12:29;;;;;;;7.00;4.50;;;11.80;99.90;;;;;;5010418;28;20022;-56
2023/03/31 12:15:32;;;;;;;7.32;4.10;;;11.80;99.90;;;;;;5012381;28;20036;-55
2023/03/31 12:18:23;;;;;;;7.32;4.47;;;11.80;99.90;;;;;;4992874;28;20038;-57
2023/03/31 12:21:10;;;;;;;8.30;4.60;;;11.90;99.90;;;;;;5002737;28;20128;-54
2023/03/31 12:23:56;;;;;;;10.68;4.63;;;11.90;99.90;;;;;;5012352;28;20066;-55
2023/03/31 12:27:11;;;;;;;7.60;4.30;;;11.90;99.90;;;;;;5011690;28;20036;-60
2023/03/31 12:29:59;;;;;;;15.27;6.70;;;12.00;99.90;;;;;;4980836;28;20030;-61
2023/03/31 12:32:55;;;;;;;17.58;8.23;;;12.10;99.90;;;;;;4999123;28;20257;-57
2023/03/31 12:36:18;;;;;;;11.68;5.20;;;12.20;99.90;;;;;;5012001;28;20014;-60
2023/03/31 12:39:30;;;;;;;8.02;4.18;;;12.30;99.90;;;;;;5011328;28;20026;-55
2023/03/31 12:42:37;;;;;;;5.63;4.25;;;12.40;99.90;;;;;;5008569;28;20022;-59
2023/03/31 12:45:38;;;;;;;8.90;4.05;;;12.40;99.90;;;;;;5006414;28;20033;-57
2023/03/31 12:48:42;;;;;;;6.40;3.97;;;12.40;99.90;;;;;;5011730;28;20045;-60
2023/03/31 12:51:41;;;;;;;5.50;3.92;;;12.50;99.90;;;;;;5012147;28;20045;-59
2023/03/31 12:54:52;;;;;;;7.05;3.70;;;12.70;99.90;;;;;;4997917;28;20022;-58
2023/03/31 12:57:38;;;;;;;6.97;3.88;;;12.90;99.90;;;;;;5012110;28;20022;-52
2023/03/31 13:00:26;;;;;;;4.95;3.65;;;13.00;99.90;;;;;;4998584;28;20034;-61
2023/03/31 13:03:41;;;;;;;7.80;4.40;;;13.10;99.90;;;;;;5011186;28;20113;-58
2023/03/31 13:06:27;;;;;;;7.68;3.47;;;13.30;99.90;;;;;;5007616;28;20067;-56
2023/03/31 13:09:13;;;;;;;8.52;3.40;;;13.50;99.90;;;;;;5011907;28;20033;-58
2023/03/31 13:12:14;;;;;;;4.88;3.05;;;13.80;99.90;;;;;;5010798;28;20029;-60
2023/03/31 13:15:03;;;;;;;4.10;2.92;;;13.80;99.90;;;;;;5011471;28;20018;-54
2023/03/31 13:17:59;;;;;;;6.18;3.30;;;13.70;99.90;;;;;;5011981;28;20034;-60
2023/03/31 13:20:46;;;;;;;4.20;3.10;;;13.90;99.90;;;;;;5011394;28;20490;-60
2023/03/31 13:23:36;;;;;;;4.85;3.30;;;14.00;99.90;;;;;;5010270;28;20084;-57
2023/03/31 13:26:31;;;;;;;4.50;2.80;;;14.00;99.90;;;;;;5012382;28;20026;-55
2023/03/31 13:29:22;;;;;;;4.07;2.70;;;13.90;99.90;;;;;;5011393;28;20076;-59
2023/03/31 13:32:27;;;;;;;3.92;2.95;;;13.80;99.90;;;;;;4992429;28;20125;-58
2023/03/31 13:35:19;;;;;;;4.30;2.72;;;14.00;99.90;;;;;;5005466;28;20031;-59
2023/03/31 13:38:36;;;;;;;5.38;2.97;;;14.10;99.90;;;;;;5011046;28;20040;-57
2023/03/31 13:41:45;;;;;;;4.75;3.22;;;14.40;99.90;;;;;;4990968;28;20033;-59
2023/03/31 13:44:52;;;;;;;6.60;3.17;;;14.80;99.90;;;;;;4991895;28;20659;-64
2023/03/31 13:48:00;;;;;;;6.05;3.10;;;14.90;99.90;;;;;;4998384;28;20426;-58
2023/03/31 13:51:07;;;;;;;3.80;2.88;;;14.90;99.90;;;;;;5006958;28;20022;-57
2023/03/31 13:54:05;;;;;;;3.63;2.97;;;15.30;99.90;;;;;;5010463;28;20058;-57
2023/03/31 13:57:28;;;;;;;4.07;2.60;;;15.30;99.90;;;;;;5010627;28;20022;-58
2023/03/31 14:00:26;;;;;;;4.15;3.03;;;15.20;99.90;;;;;;4998322;28;20069;-59
2023/03/31 14:03:42;;;;;;;4.35;2.80;;;14.80;99.90;;;;;;5011233;28;20022;-59
2023/03/31 14:06:51;;;;;;;3.10;2.60;;;14.20;99.90;;;;;;5010439;28;20122;-59
2023/03/31 14:09:45;;;;;;;2.97;2.50;;;13.90;99.90;;;;;;5011808;28;20494;-59
2023/03/31 14:12:35;;;;;;;4.38;2.47;;;13.70;99.90;;;;;;4992025;28;20031;-55
2023/03/31 14:15:21;;;;;;;4.18;2.58;;;13.60;99.90;;;;;;4996389;28;20106;-55
2023/03/31 14:18:11;;;;;;;3.28;2.33;;;13.40;99.90;;;;;;5009451;28;20058;-58
2023/03/31 14:21:07;;;;;;;12.50;8.63;;;13.30;99.90;;;;;;5009498;28;20506;-59
2023/03/31 14:24:08;;;;;;;3.97;2.80;;;13.40;99.90;;;;;;5011795;28;20037;-60
2023/03/31 14:27:00;;;;;;;3.67;2.20;;;13.30;99.90;;;;;;5010093;28;20025;-57
2023/03/31 14:30:26;;;;;;;4.50;2.50;;;13.20;99.90;;;;;;5010413;28;20018;-60
2023/03/31 14:33:36;;;;;;;2.97;2.10;;;13.00;99.90;;;;;;4996566;28;20030;-59
2023/03/31 14:36:46;;;;;;;3.05;2.00;;;13.00;99.90;;;;;;5010829;28;20073;-54
2023/03/31 14:39:36;;;;;;;3.30;2.40;;;12.90;99.90;;;;;;5010692;28;20108;-57
2023/03/31 14:42:37;;;;;;;3.30;2.25;;;12.70;99.90;;;;;;5009451;28;20057;-62
2023/03/31 14:45:30;;;;;;;6.70;2.63;;;12.60;99.90;;;;;;5008987;28;20053;-58
2023/03/31 14:48:16;;;;;;;3.38;1.98;;;12.60;99.90;;;;;;5012993;28;20025;-60
2023/03/31 14:51:08;;;;;;;4.45;2.03;;;12.60;99.90;;;;;;5021291;28;20030;-58
2023/03/31 14:53:58;;;;;;;3.88;2.20;;;12.50;99.90;;;;;;5009318;28;20109;-59
2023/03/31 14:56:49;;;;;;;3.20;2.50;;;12.50;99.90;;;;;;5010977;28;20093;-59
2023/03/31 14:59:36;;;;;;;4.40;2.53;;;12.50;99.90;;;;;;5011363;28;20026;-60